Time;durP1;ratioP1;P1;durP2;ratioP2;P2;SDS_P1;SDS_P2;PMS_P1;PMS_P2;Temp;Humidity;BMP_temperature;BMP_pressure;BME280_temperature;BME280_humidity;BME280_pressure;Samples;Min_cycle;Max_cycle;Signal;HPM_P1;HPM_P2
2024/03/30 00:02:32;;;;;;;15.60;6.60;;;;;;;12.08;69.48;97547.61;435169;1253;108550;-41
2024/03/30 00:12:38;;;;;;;17.60;7.50;;;;;;;12.01;69.52;97546.27;435259;1256;100541;-40
2024/03/30 00:22:45;;;;;;;20.10;6.60;;;;;;;11.95;69.83;97550.30;435164;1255;108019;-39
2024/03/30 00:32:51;;;;;;;17.50;7.60;;;;;;;11.91;70.35;97529.33;435200;1256;99349;-40
2024/03/30 00:53:11;;;;;;;22.40;10.70;;;;;;;11.63;71.25;97515.71;435436;1256;107381;-39
2024/03/30 01:03:18;;;;;;;24.60;12.10;;;;;;;11.41;71.18;97513.23;435201;1256;100553;-40
2024/03/30 01:13:23;;;;;;;23.50;10.50;;;;;;;11.05;71.55;97515.64;435208;1256;106586;-41
2024/03/30 01:23:30;;;;;;;25.90;11.70;;;;;;;10.70;72.16;97520.98;435212;1257;100574;-40
2024/03/30 01:33:35;;;;;;;23.00;11.30;;;;;;;10.58;72.41;97523.19;435116;1263;112633;-40
2024/03/30 01:53:48;;;;;;;28.80;12.00;;;;;;;10.40;73.06;97516.48;435371;1256;100612;-40
2024/03/30 02:14:02;;;;;;;22.20;9.00;;;;;;;10.37;74.38;97518.48;435225;1251;99718;-41
2024/03/30 02:24:08;;;;;;;28.10;8.40;;;;;;;10.50;74.73;97519.92;435201;1256;112157;-40
2024/03/30 02:34:15;;;;;;;27.20;9.70;;;;;;;10.48;75.20;97517.33;435189;1255;108228;-40
2024/03/30 02:44:22;;;;;;;26.20;9.00;;;;;;;10.41;75.11;97537.05;436067;1253;99635;-40
2024/03/30 02:54:28;;;;;;;18.60;8.00;;;;;;;10.37;74.46;97548.16;435150;1252;106466;-40
2024/03/30 03:04:34;;;;;;;23.10;9.30;;;;;;;10.22;74.50;97546.69;435304;1253;100619;-41
2024/03/30 03:14:41;;;;;;;29.00;9.10;;;;;;;10.11;74.81;97553.92;435115;1256;112753;-40
2024/03/30 03:24:47;;;;;;;23.90;10.80;;;;;;;10.04;75.05;97555.20;435096;1256;108268;-40
2024/03/30 03:34:54;;;;;;;23.70;10.20;;;;;;;9.90;75.65;97539.03;435177;1255;99329;-41
2024/03/30 03:45:01;;;;;;;23.50;9.30;;;;;;;9.84;76.31;97529.31;434984;1255;107598;-41
2024/03/30 03:55:07;;;;;;;26.60;9.30;;;;;;;9.86;76.84;97524.15;435106;1253;100626;-40
2024/03/30 04:05:13;;;;;;;26.90;10.70;;;;;;;9.92;77.26;97529.05;435093;1255;112309;-40
2024/03/30 04:15:20;;;;;;;23.90;9.20;;;;;;;9.94;77.71;97540.98;435059;1255;108967;-40
2024/03/30 04:25:27;;;;;;;25.30;8.80;;;;;;;9.98;77.81;97552.20;435036;1253;100683;-39
2024/03/30 04:35:35;;;;;;;23.90;10.20;;;;;;;10.05;77.95;97555.41;435198;1253;108244;-40
2024/03/30 04:45:41;;;;;;;25.40;9.40;;;;;;;10.13;78.37;97557.84;435093;1255;100578;-41
2024/03/30 04:55:52;;;;;;;28.80;10.30;;;;;;;10.25;78.33;97567.64;434982;1255;115096;-40
2024/03/30 05:05:59;;;;;;;26.80;9.80;;;;;;;10.39;78.45;97560.29;435042;1255;109539;-40
2024/03/30 05:16:07;;;;;;;24.70;9.80;;;;;;;10.46;78.48;97556.06;435153;1256;99683;-41
2024/03/30 05:26:13;;;;;;;31.20;9.80;;;;;;;10.53;78.53;97560.23;435077;1256;106048;-40
2024/03/30 05:36:20;;;;;;;27.70;10.30;;;;;;;10.78;78.37;97556.61;434758;1256;493377;-45
2024/03/30 05:46:26;;;;;;;31.00;9.40;;;;;;;11.34;78.43;97551.05;435200;1255;112634;-39
2024/03/30 05:56:33;;;;;;;29.10;9.40;;;;;;;12.81;77.80;97551.17;435040;1256;109328;-40
2024/03/30 06:06:39;;;;;;;24.80;8.50;;;;;;;13.29;75.94;97562.18;434992;1255;100670;-39
2024/03/30 06:16:47;;;;;;;28.70;8.80;;;;;;;14.33;74.47;97562.46;435165;1255;107641;-40
2024/03/30 06:26:54;;;;;;;24.50;10.00;;;;;;;14.47;73.04;97558.83;435115;1255;99356;-41
2024/03/30 06:36:59;;;;;;;29.80;9.90;;;;;;;15.52;71.78;97559.76;435092;1255;112850;-40
2024/03/30 06:47:07;;;;;;;33.40;7.70;;;;;;;16.53;69.70;97561.91;435244;1255;108863;-40
2024/03/30 06:57:14;;;;;;;41.00;6.90;;;;;;;16.43;68.57;97563.00;435117;1254;100581;-41
2024/03/30 07:07:20;;;;;;;31.70;7.40;;;;;;;16.81;67.17;97559.23;435026;1253;107289;-41
2024/03/30 07:17:27;;;;;;;42.00;8.20;;;;;;;17.01;66.14;97559.38;435136;1252;99727;-41
2024/03/30 07:27:33;;;;;;;36.30;8.20;;;;;;;17.11;64.53;97559.02;435126;1255;112604;-40
2024/03/30 07:37:40;;;;;;;48.50;9.80;;;;;;;17.64;63.18;97571.14;434970;1257;108246;-39
2024/03/30 07:47:45;;;;;;;39.40;8.60;;;;;;;18.03;61.60;97579.48;435417;1256;99366;-39
2024/03/30 07:57:52;;;;;;;39.40;7.40;;;;;;;18.44;60.87;97578.13;435243;1256;108019;-41
2024/03/30 08:07:59;;;;;;;34.40;5.80;;;;;;;18.95;59.16;97589.15;435370;1253;100633;-40
2024/03/30 08:18:03;;;;;;;37.70;9.50;;;;;;;19.39;56.79;97596.48;435209;1256;112151;-41
2024/03/30 08:38:18;;;;;;;35.50;8.40;;;;;;;19.91;55.06;97598.11;435346;1253;100614;-40
2024/03/30 08:48:25;;;;;;;46.50;9.10;;;;;;;20.45;54.76;97592.30;435283;1264;108064;-40
2024/03/30 08:58:31;;;;;;;39.70;9.40;;;;;;;20.78;53.88;97585.95;435148;1255;100700;-40
2024/03/30 09:08:38;;;;;;;57.50;10.20;;;;;;;21.08;52.70;97577.94;435344;1256;114302;-40
2024/03/30 09:18:44;;;;;;;55.80;10.00;;;;;;;21.37;52.17;97577.03;435314;1255;108175;-41
2024/03/30 09:28:51;;;;;;;56.00;9.40;;;;;;;21.47;49.86;97567.35;435223;1256;100515;-41
2024/03/30 09:38:58;;;;;;;63.10;9.40;;;;;;;21.63;47.96;97549.90;435256;1256;107308;-40
2024/03/30 09:59:14;;;;;;;81.80;12.80;;;;;;;21.75;45.76;97543.73;435407;1254;112134;-41
2024/03/30 10:30:00;;;;;;;81.30;13.00;;;;;;;22.03;42.35;97546.52;435155;1264;108137;-39
2024/03/30 10:40:05;;;;;;;68.10;14.10;;;;;;;22.02;42.42;97538.32;435197;1251;99395;-42
2024/03/30 10:50:11;;;;;;;79.40;12.70;;;;;;;22.20;42.53;97525.28;435245;1256;112202;-40
2024/03/30 11:00:18;;;;;;;91.40;12.80;;;;;;;22.71;43.03;97517.41;435182;1256;107139;-41
2024/03/30 11:10:23;;;;;;;61.30;10.90;;;;;;;22.67;41.34;97521.83;435145;1256;100583;-39
2024/03/30 11:20:38;;;;;;;72.70;13.20;;;;;;;22.49;42.00;97527.14;434959;1256;107639;-40
2024/03/30 11:31:00;;;;;;;80.00;13.60;;;;;;;22.50;41.85;97522.02;435251;1251;100594;-41
2024/03/30 11:41:08;;;;;;;87.70;15.90;;;;;;;22.73;40.60;97517.09;435156;1251;112489;-41
2024/03/30 11:51:22;;;;;;;88.70;14.40;;;;;;;22.79;40.46;97522.22;434930;1256;106768;-40
2024/03/30 12:01:28;;;;;;;80.10;14.20;;;;;;;23.30;40.66;97524.42;434966;1254;99318;-42
2024/03/30 12:11:34;;;;;;;86.30;13.00;;;;;;;23.23;39.23;97526.93;435873;1253;109727;-40
2024/03/30 12:21:41;;;;;;;85.40;13.80;;;;;;;23.23;38.50;97510.19;435035;1257;99362;-41
2024/03/30 12:31:47;;;;;;;88.20;12.90;;;;;;;23.38;37.93;97500.33;435032;1257;112321;-39
2024/03/30 12:41:54;;;;;;;76.10;12.90;;;;;;;23.18;36.61;97487.40;435040;1257;107847;-39
2024/03/30 12:52:01;;;;;;;70.00;11.00;;;;;;;23.00;36.22;97476.69;435252;1257;100594;-40
2024/03/30 13:02:07;;;;;;;67.00;10.60;;;;;;;23.09;36.30;97456.30;435197;1256;108247;-40
2024/03/30 13:12:13;;;;;;;53.80;9.00;;;;;;;23.23;36.91;97447.17;435205;1254;100591;-40
2024/03/30 13:22:19;;;;;;;41.70;7.90;;;;;;;23.35;36.48;97439.27;435206;1257;114444;-40
2024/03/30 13:32:26;;;;;;;67.70;8.80;;;;;;;23.24;35.13;97436.11;435228;1251;108517;-40
2024/03/30 13:42:34;;;;;;;47.60;8.50;;;;;;;23.14;35.16;97422.08;435135;1256;100565;-40
2024/03/30 13:52:40;;;;;;;51.30;8.60;;;;;;;23.11;33.65;97409.35;435198;1251;108663;-39
2024/03/30 14:02:51;;;;;;;67.20;8.00;;;;;;;23.12;31.72;97403.84;435142;1251;100594;-40
2024/03/30 14:12:58;;;;;;;57.10;8.80;;;;;;;23.10;32.32;97396.48;435196;1257;113753;-40
2024/03/30 14:23:04;;;;;;;54.30;9.60;;;;;;;23.13;33.09;97387.30;435067;1257;108206;-41
2024/03/30 14:33:10;;;;;;;46.80;7.70;;;;;;;23.13;33.17;97368.42;435371;1256;99385;-40
2024/03/30 14:43:14;;;;;;;63.10;10.00;;;;;;;23.15;32.03;97360.11;435118;1257;108198;-40
2024/03/30 15:03:34;;;;;;;76.20;9.50;;;;;;;23.00;30.06;97361.15;435213;1256;113275;-45
2024/03/30 15:13:41;;;;;;;64.00;10.30;;;;;;;22.76;29.63;97354.58;435079;1264;107261;-41
2024/03/30 15:23:49;;;;;;;62.80;9.10;;;;;;;22.44;29.68;97345.36;435209;1251;100572;-41
2024/03/30 15:44:01;;;;;;;56.60;9.80;;;;;;;21.95;31.11;97346.61;435418;1251;99362;-39
2024/03/30 15:54:08;;;;;;;54.30;8.60;;;;;;;21.90;31.51;97350.89;435157;1251;113148;-41
2024/03/30 16:04:14;;;;;;;60.70;9.30;;;;;;;21.66;31.81;97353.49;435217;1255;108923;-42
2024/03/30 16:14:21;;;;;;;58.00;9.80;;;;;;;21.39;32.21;97350.25;435146;1251;99404;-46
2024/03/30 16:24:28;;;;;;;62.40;11.40;;;;;;;21.26;32.52;97351.67;435318;1256;108373;-41
2024/03/30 16:34:36;;;;;;;62.10;9.40;;;;;;;21.11;33.12;97353.06;435237;1256;101249;-41
2024/03/30 16:44:47;;;;;;;56.20;10.70;;;;;;;20.99;33.30;97354.01;435133;1257;112056;-41
2024/03/30 16:54:54;;;;;;;63.50;9.90;;;;;;;20.78;33.82;97356.82;435178;1256;107605;-40
2024/03/30 17:05:02;;;;;;;60.50;9.70;;;;;;;20.49;33.81;97366.98;435108;1251;100613;-39
2024/03/30 17:15:10;;;;;;;64.10;11.60;;;;;;;20.19;34.25;97378.66;435134;1256;108694;-41
2024/03/30 17:25:16;;;;;;;64.70;12.30;;;;;;;19.94;34.29;97383.70;435261;1257;100585;-40
2024/03/30 17:35:23;;;;;;;72.00;11.30;;;;;;;19.75;34.83;97398.45;435201;1251;112909;-40
2024/03/30 17:45:30;;;;;;;60.10;10.40;;;;;;;19.53;34.96;97408.48;434932;1256;409653;-40
2024/03/30 17:55:37;;;;;;;63.80;13.00;;;;;;;19.32;35.28;97424.77;435258;1251;100575;-41
2024/03/30 18:05:45;;;;;;;66.40;11.80;;;;;;;19.14;35.39;97437.66;435235;1256;109159;-41
2024/03/30 18:15:53;;;;;;;73.70;12.50;;;;;;;19.19;35.66;97442.11;435321;1251;100587;-41
2024/03/30 18:36:06;;;;;;;86.00;15.40;;;;;;;18.63;36.64;97447.46;435143;1251;108315;-40
2024/03/30 18:46:14;;;;;;;74.30;11.50;;;;;;;18.56;36.74;97442.30;435078;1251;99286;-41
2024/03/30 18:56:20;;;;;;;;;;;;;;;18.81;36.38;97449.01;435084;1251;107851;-41
2024/03/30 19:06:26;;;;;;;87.70;11.70;;;;;;;18.88;36.32;97460.05;435338;1251;99377;-41
2024/03/30 19:16:33;;;;;;;79.30;12.00;;;;;;;18.74;36.35;97464.38;435367;1251;114364;-40
2024/03/30 19:26:39;;;;;;;73.90;12.60;;;;;;;18.53;36.77;97476.33;435163;1256;108582;-40
2024/03/30 19:36:46;;;;;;;80.50;15.30;;;;;;;18.28;37.34;97472.34;435177;1256;99734;-40
2024/03/30 19:46:53;;;;;;;71.30;13.80;;;;;;;17.97;37.90;97470.17;435471;1256;109435;-40
2024/03/30 19:56:59;;;;;;;73.20;14.20;;;;;;;17.66;38.32;97470.52;435255;1256;100591;-40
2024/03/30 20:07:06;;;;;;;77.80;15.30;;;;;;;17.37;38.67;97475.09;435307;1267;113272;-41
2024/03/30 20:17:14;;;;;;;67.60;13.80;;;;;;;17.11;39.29;97481.10;434806;1251;107601;-39
2024/03/30 20:27:22;;;;;;;77.50;15.90;;;;;;;16.88;39.48;97483.92;435322;1251;99362;-40
2024/03/30 20:37:28;;;;;;;77.60;17.00;;;;;;;16.67;39.97;97478.94;435293;1256;106761;-41
2024/03/30 20:47:35;;;;;;;62.40;14.40;;;;;;;16.46;40.43;97466.52;435273;1251;100607;-40
2024/03/30 20:57:41;;;;;;;80.70;15.80;;;;;;;16.25;40.77;97459.85;435265;1253;112874;-40
2024/03/30 21:07:48;;;;;;;86.10;19.70;;;;;;;16.05;41.17;97459.89;435224;1256;108241;-41
2024/03/30 21:17:56;;;;;;;89.50;17.90;;;;;;;15.86;41.77;97458.40;435299;1251;99397;-40
2024/03/30 21:28:03;;;;;;;61.30;16.40;;;;;;;15.73;42.47;97453.11;435161;1251;107428;-40
2024/03/30 21:38:10;;;;;;;77.70;14.50;;;;;;;15.65;43.16;97455.16;435227;1256;99443;-41
2024/03/30 21:48:31;;;;;;;80.00;14.30;;;;;;;15.48;44.39;97452.20;435167;1252;114408;-40
2024/03/30 21:58:38;;;;;;;71.20;16.10;;;;;;;15.32;44.97;97449.08;435187;1256;107231;-40
2024/03/30 22:08:44;;;;;;;79.30;17.00;;;;;;;15.19;45.63;97447.73;435318;1251;99388;-40
2024/03/30 22:18:53;;;;;;;65.40;16.70;;;;;;;15.10;46.14;97444.44;435135;1258;109140;-41
2024/03/30 22:49:13;;;;;;;59.50;15.60;;;;;;;14.70;47.64;97439.37;435185;1256;108192;-40
2024/03/30 22:59:19;;;;;;;66.60;17.20;;;;;;;14.57;48.17;97432.98;435175;1251;100606;-40
2024/03/30 23:09:27;;;;;;;68.10;16.50;;;;;;;14.40;48.59;97433.31;435156;1256;108663;-40
2024/03/30 23:19:34;;;;;;;77.40;15.70;;;;;;;14.27;48.87;97430.42;435178;1251;100607;-41
2024/03/30 23:29:40;;;;;;;65.60;15.10;;;;;;;14.08;49.33;97429.70;435313;1256;112404;-40
2024/03/30 23:49:53;;;;;;;63.10;12.30;;;;;;;13.95;50.42;97412.45;435280;1255;100564;-40
